createdAt,value
2019-01-15T00:01:40.520Z,1.83
2019-01-15T00:06:44.597Z,1.82
2019-01-15T00:11:48.846Z,1.84
2019-01-15T00:16:52.995Z,1.84
2019-01-15T00:21:57.047Z,1.86
2019-01-15T00:27:01.184Z,1.91
2019-01-15T00:32:05.537Z,1.92
2019-01-15T00:37:09.676Z,1.93
2019-01-15T00:42:15.422Z,1.94
2019-01-15T00:47:19.753Z,2.02
2019-01-15T00:52:23.909Z,2.04
2019-01-15T00:57:28.065Z,2.01
2019-01-15T01:02:33.210Z,1.96
2019-01-15T01:07:37.300Z,2.01
2019-01-15T01:12:41.306Z,2.09
2019-01-15T01:17:45.333Z,2.01
2019-01-15T01:22:49.909Z,2.00
2019-01-15T01:27:54.236Z,1.88
2019-01-15T01:32:58.559Z,1.86
2019-01-15T01:38:03.146Z,1.94
2019-01-15T01:43:07.270Z,1.97
2019-01-15T01:48:11.378Z,1.82
2019-01-15T01:53:15.451Z,1.87
2019-01-15T01:58:19.914Z,1.90
2019-01-15T02:03:24.015Z,1.92
2019-01-15T02:08:28.117Z,1.99
2019-01-15T02:13:32.601Z,2.11
2019-01-15T02:18:36.675Z,2.06
2019-01-15T02:23:40.721Z,2.03
2019-01-15T02:28:44.720Z,1.96
2019-01-15T02:33:48.850Z,1.73
2019-01-15T02:38:52.887Z,1.72
2019-01-15T02:43:57.242Z,1.53
2019-01-15T02:49:04.756Z,1.52
2019-01-15T02:54:08.851Z,1.55
2019-01-15T02:59:13.170Z,1.48
2019-01-15T03:04:17.188Z,1.49
2019-01-15T03:09:21.201Z,1.50
2019-01-15T03:14:25.218Z,1.58
2019-01-15T03:19:29.369Z,1.42
2019-01-15T03:24:33.782Z,1.46
2019-01-15T03:29:37.880Z,1.43
2019-01-15T03:34:41.901Z,1.41
2019-01-15T03:39:46.227Z,1.41
2019-01-15T03:44:50.504Z,1.58
2019-01-15T03:49:54.534Z,1.38
2019-01-15T03:54:58.546Z,1.61
2019-01-15T04:00:06.890Z,1.66
2019-01-15T04:05:12.538Z,1.79
2019-01-15T04:10:16.761Z,2.02
2019-01-15T04:15:20.786Z,2.19
2019-01-15T04:20:25.086Z,2.21
2019-01-15T04:25:29.140Z,2.38
2019-01-15T04:30:33.246Z,2.46
2019-01-15T04:35:37.334Z,2.59
2019-01-15T04:40:43.764Z,2.62
2019-01-15T04:45:47.823Z,2.59
2019-01-15T04:50:52.741Z,2.68
2019-01-15T04:55:56.898Z,2.74
2019-01-15T05:01:04.975Z,2.76
2019-01-15T05:06:09.109Z,2.72
2019-01-15T05:11:13.189Z,2.67
2019-01-15T05:16:17.520Z,2.67
2019-01-15T05:21:21.834Z,2.72
2019-01-15T05:26:28.196Z,2.76
2019-01-15T05:31:32.500Z,2.72
2019-01-15T05:36:36.564Z,2.73
2019-01-15T05:41:40.908Z,2.79
2019-01-15T05:46:45.268Z,2.75
2019-01-15T05:51:49.301Z,2.82
2019-01-15T05:56:54.372Z,2.81
2019-01-15T06:01:58.486Z,2.84
2019-01-15T06:07:02.605Z,2.80
2019-01-15T06:12:06.663Z,2.86
2019-01-15T06:17:10.834Z,2.88
2019-01-15T06:22:14.961Z,2.93
2019-01-15T06:27:19.077Z,3.03
2019-01-15T06:32:23.149Z,2.91
2019-01-15T06:37:27.333Z,3.00
2019-01-15T06:42:31.428Z,2.97
2019-01-15T06:47:35.778Z,3.02
2019-01-15T06:52:40.050Z,3.04
2019-01-15T06:57:44.044Z,3.00
2019-01-15T07:02:48.472Z,2.98
2019-01-15T07:07:52.525Z,2.93
2019-01-15T07:12:56.635Z,3.08
2019-01-15T07:18:00.718Z,2.95
2019-01-15T07:23:04.731Z,3.00
2019-01-15T07:28:08.993Z,2.98
2019-01-15T07:33:13.295Z,3.04
2019-01-15T07:38:17.599Z,3.14
2019-01-15T07:43:22.022Z,3.16
2019-01-15T07:48:26.079Z,3.18
2019-01-15T07:53:30.403Z,3.19
2019-01-15T07:58:34.417Z,3.19
2019-01-15T08:03:38.753Z,3.20
2019-01-15T08:08:43.089Z,3.29
2019-01-15T08:13:47.157Z,3.32
2019-01-15T08:18:51.656Z,3.36
2019-01-15T08:23:55.749Z,3.38
2019-01-15T08:28:59.794Z,3.38
2019-01-15T08:34:03.821Z,3.47
2019-01-15T08:39:08.423Z,3.56
2019-01-15T08:44:19.040Z,3.55
2019-01-15T08:49:18.213Z,3.14
2019-01-15T08:54:22.217Z,2.82
2019-01-15T08:59:26.331Z,2.75
2019-01-15T09:04:30.521Z,2.78
2019-01-15T09:09:34.554Z,2.84
2019-01-15T09:14:38.601Z,2.85
2019-01-15T09:19:42.689Z,2.82
2019-01-15T09:24:46.810Z,2.80
2019-01-15T09:29:50.912Z,2.80
2019-01-15T09:34:54.951Z,2.83
2019-01-15T09:39:58.968Z,2.84
2019-01-15T09:45:03.285Z,2.84
2019-01-15T09:50:09.243Z,2.90
2019-01-15T09:55:13.674Z,2.86
2019-01-15T10:00:17.940Z,2.98
2019-01-15T10:05:21.963Z,3.01
2019-01-15T10:10:25.977Z,3.01
2019-01-15T10:15:29.962Z,3.04
2019-01-15T10:20:33.986Z,3.08
2019-01-15T10:25:38.003Z,3.19
2019-01-15T10:31:07.101Z,3.42
2019-01-15T10:36:09.385Z,3.52
2019-01-15T10:41:13.387Z,3.34
2019-01-15T10:46:17.398Z,3.43
2019-01-15T10:51:21.456Z,3.46
2019-01-15T10:56:25.499Z,3.48
2019-01-15T11:01:29.540Z,3.72
2019-01-15T11:06:33.831Z,3.94
2019-01-15T11:11:37.851Z,4.07
2019-01-15T11:16:41.919Z,4.19
2019-01-15T11:21:46.656Z,4.35
2019-01-15T11:26:50.736Z,4.42
2019-01-15T11:31:54.864Z,4.39
2019-01-15T11:37:00.153Z,4.30
2019-01-15T11:42:05.380Z,4.26
2019-01-15T11:47:11.237Z,4.40
2019-01-15T11:52:16.659Z,4.26
2019-01-15T11:57:21.206Z,4.37
2019-01-15T12:02:26.371Z,4.44
2019-01-15T12:07:31.068Z,4.38
2019-01-15T12:12:36.923Z,4.40
2019-01-15T12:17:42.418Z,4.52
2019-01-15T12:22:46.557Z,4.59
2019-01-15T12:27:50.688Z,4.65
2019-01-15T12:32:55.511Z,4.69
2019-01-15T12:38:00.176Z,4.77
2019-01-15T12:43:05.111Z,4.65
2019-01-15T12:48:09.177Z,4.56
2019-01-15T12:53:13.606Z,4.40
2019-01-15T12:58:17.611Z,4.35
2019-01-15T13:03:21.797Z,4.20
2019-01-15T13:08:26.582Z,4.15
2019-01-15T13:13:30.880Z,4.08
2019-01-15T13:18:35.242Z,4.07
2019-01-15T13:23:39.640Z,4.09
2019-01-15T13:28:43.687Z,4.13
2019-01-15T13:33:47.807Z,4.19
2019-01-15T13:38:52.771Z,4.20
2019-01-15T13:43:57.064Z,4.31
2019-01-15T13:49:01.436Z,4.32
2019-01-15T13:54:06.021Z,4.42
2019-01-15T13:59:10.157Z,4.41
2019-01-15T14:04:14.236Z,4.39
2019-01-15T14:09:18.326Z,4.48
2019-01-15T14:14:22.980Z,4.44
2019-01-15T14:19:28.127Z,4.46
2019-01-15T14:24:32.936Z,4.42
2019-01-15T14:29:37.460Z,4.41
2019-01-15T14:34:41.945Z,4.45
2019-01-15T14:39:46.143Z,4.43
2019-01-15T14:44:51.836Z,4.47
2019-01-15T14:49:56.942Z,4.50
2019-01-15T14:55:01.179Z,4.55
2019-01-15T15:00:08.437Z,4.58
2019-01-15T15:05:13.837Z,4.65
2019-01-15T15:10:19.586Z,4.67
2019-01-15T15:15:23.930Z,4.71
2019-01-15T15:20:27.960Z,4.81
2019-01-15T15:25:31.998Z,4.81
2019-01-15T15:30:36.070Z,4.91
2019-01-15T15:35:40.140Z,4.98
2019-01-15T15:40:44.192Z,5.06
2019-01-15T15:45:49.113Z,5.06
2019-01-15T15:50:53.181Z,5.04
2019-01-15T15:55:57.216Z,5.07
2019-01-15T16:01:01.260Z,5.13
2019-01-15T16:06:05.314Z,5.15
2019-01-15T16:11:11.047Z,5.20
2019-01-15T16:16:18.952Z,5.26
2019-01-15T16:21:21.265Z,5.29
2019-01-15T16:26:25.304Z,5.38
2019-01-15T16:31:29.356Z,5.46
2019-01-15T16:36:33.392Z,5.51
2019-01-15T16:41:37.439Z,5.54
2019-01-15T16:46:41.504Z,5.57
2019-01-15T16:51:45.621Z,5.73
2019-01-15T16:56:50.133Z,5.75
2019-01-15T17:01:54.271Z,5.84
2019-01-15T17:06:58.273Z,5.86
2019-01-15T17:12:02.456Z,5.83
2019-01-15T17:17:06.565Z,5.92
2019-01-15T17:22:19.072Z,5.88
2019-01-15T17:27:23.825Z,5.92
2019-01-15T17:32:27.864Z,5.92
2019-01-15T17:37:31.926Z,6.01
2019-01-15T17:42:36.061Z,6.01
2019-01-15T17:47:40.086Z,6.03
2019-01-15T17:52:44.185Z,6.09
2019-01-15T17:57:49.469Z,6.18
2019-01-15T18:02:53.486Z,6.17
2019-01-15T18:07:57.675Z,6.26
2019-01-15T18:13:01.748Z,6.38
2019-01-15T18:18:06.811Z,6.38
2019-01-15T18:23:11.366Z,6.36
2019-01-15T18:28:15.804Z,6.28
2019-01-15T18:33:20.869Z,6.24
2019-01-15T18:38:25.865Z,6.14
2019-01-15T18:43:30.773Z,6.16
2019-01-15T18:48:35.459Z,6.13
2019-01-15T18:53:40.284Z,6.12
2019-01-15T18:58:44.860Z,6.10
2019-01-15T19:03:48.949Z,6.11
2019-01-15T19:08:52.980Z,6.10
2019-01-15T19:13:57.301Z,6.30
2019-01-15T19:19:01.648Z,6.36
2019-01-15T19:24:06.202Z,6.42
2019-01-15T19:29:11.015Z,6.28
2019-01-15T19:34:15.158Z,6.18
2019-01-15T19:39:19.832Z,6.13
2019-01-15T19:44:24.185Z,6.06
2019-01-15T19:49:29.154Z,6.01
2019-01-15T19:54:34.631Z,6.07
2019-01-15T19:59:39.530Z,6.10
2019-01-15T20:04:43.858Z,6.12
2019-01-15T20:09:48.486Z,6.13
2019-01-15T20:14:52.742Z,6.12
2019-01-15T20:19:56.895Z,6.15
2019-01-15T20:25:00.965Z,6.16
2019-01-15T20:30:06.954Z,6.16
2019-01-15T20:35:11.090Z,6.23
2019-01-15T20:40:15.220Z,6.23
2019-01-15T20:45:19.515Z,6.27
2019-01-15T20:50:23.663Z,6.23
2019-01-15T20:55:28.355Z,6.21
2019-01-15T21:00:32.762Z,6.20
2019-01-15T21:05:36.935Z,6.20
2019-01-15T21:10:41.655Z,6.22
2019-01-15T21:15:45.986Z,6.20
2019-01-15T21:20:50.078Z,6.17
2019-01-15T21:25:54.115Z,6.09
2019-01-15T21:30:58.234Z,6.11
2019-01-15T21:36:02.359Z,6.12
2019-01-15T21:41:06.438Z,6.13
2019-01-15T21:46:10.466Z,6.14
2019-01-15T21:51:14.817Z,6.14
2019-01-15T21:56:19.154Z,6.15
2019-01-15T22:01:23.256Z,6.18
2019-01-15T22:06:27.322Z,6.22
2019-01-15T22:11:31.650Z,6.22
2019-01-15T22:16:35.671Z,6.23
2019-01-15T22:21:39.715Z,6.17
2019-01-15T22:26:43.843Z,6.22
2019-01-15T22:31:47.971Z,6.19
2019-01-15T22:36:52.007Z,6.17
2019-01-15T22:41:56.037Z,6.29
2019-01-15T22:47:00.081Z,6.20
2019-01-15T22:52:04.350Z,6.17
2019-01-15T22:57:08.360Z,6.21
2019-01-15T23:02:12.581Z,6.19
2019-01-15T23:07:16.632Z,6.22
2019-01-15T23:12:20.689Z,6.22
2019-01-15T23:17:24.796Z,6.21
2019-01-15T23:22:29.086Z,6.22
2019-01-15T23:27:33.154Z,6.21
2019-01-15T23:32:37.234Z,6.26
2019-01-15T23:37:41.267Z,6.31
2019-01-15T23:42:45.366Z,6.28
2019-01-15T23:47:49.661Z,6.28
2019-01-15T23:52:53.707Z,6.27
2019-01-15T23:57:57.791Z,6.33
